Time;durP1;ratioP1;P1;durP2;ratioP2;P2;SDS_P1;SDS_P2;PMS_P1;PMS_P2;Temp;Humidity;BMP_temperature;BMP_pressure;BME280_temperature;BME280_humidity;BME280_pressure;Samples;Min_cycle;Max_cycle;Signal;HPM_P1;HPM_P2
2022/11/08 00:02:49;;;;;;;11.00;2.50;;;14.10;81.60;;;;;;9181522;19;20026;-65
2022/11/08 00:15:48;;;;;;;12.50;2.75;;;14.10;81.60;;;;;;9183287;19;20037;-65
2022/11/08 00:18:52;;;;;;;13.35;3.20;;;14.10;81.70;;;;;;9183004;19;20010;-65
2022/11/08 00:21:56;;;;;;;;;;;14.00;81.60;;;;;;9179237;19;20034;-66
2022/11/08 00:25:00;;;;;;;13.35;2.58;;;14.00;81.60;;;;;;9181494;19;19939;-65
2022/11/08 00:28:04;;;;;;;10.90;2.42;;;14.00;81.50;;;;;;9182718;19;20039;-66
2022/11/08 00:31:10;;;;;;;17.00;2.90;;;14.00;81.60;;;;;;9178111;19;20177;-65
2022/11/08 00:34:14;;;;;;;12.70;2.38;;;14.00;81.60;;;;;;9180649;19;20006;-65
2022/11/08 00:37:19;;;;;;;16.55;2.72;;;14.00;81.70;;;;;;9178080;19;20074;-66
2022/11/08 00:40:23;;;;;;;9.32;2.08;;;14.10;81.70;;;;;;9180167;19;20014;-67
2022/11/08 00:43:27;;;;;;;10.63;2.70;;;14.00;81.70;;;;;;9180456;19;20380;-65
2022/11/08 00:46:32;;;;;;;;;;;14.10;82.40;;;;;;9181545;19;20022;-65
2022/11/08 00:49:36;;;;;;;6.88;2.10;;;14.00;81.70;;;;;;9179805;19;20343;-65
2022/11/08 00:52:40;;;;;;;;;;;14.00;81.60;;;;;;9181242;19;20018;-66
2022/11/08 00:55:44;;;;;;;11.13;2.20;;;14.00;81.60;;;;;;9180640;19;19919;-65
2022/11/08 00:58:48;;;;;;;11.05;2.05;;;14.00;81.50;;;;;;9180160;19;20047;-66
2022/11/08 01:01:54;;;;;;;;;;;14.00;81.50;;;;;;9181323;19;20039;-65
2022/11/08 01:04:58;;;;;;;12.27;2.58;;;13.90;81.60;;;;;;9176779;19;19919;-66
2022/11/08 01:08:01;;;;;;;7.93;1.75;;;13.90;81.50;;;;;;9181286;19;20011;-65
2022/11/08 01:11:06;;;;;;;;;;;13.90;81.50;;;;;;9177088;19;20481;-65
2022/11/08 01:14:10;;;;;;;12.52;2.40;;;13.90;81.50;;;;;;9178270;19;20280;-66
2022/11/08 01:17:16;;;;;;;7.85;2.13;;;13.80;81.50;;;;;;9177931;19;20014;-64
2022/11/08 01:20:20;;;;;;;11.30;2.38;;;13.80;81.50;;;;;;9174710;19;20478;-65
2022/11/08 01:23:24;;;;;;;11.77;2.95;;;13.80;81.60;;;;;;9177774;19;20018;-66
2022/11/08 01:26:29;;;;;;;14.60;3.00;;;13.80;81.70;;;;;;9178233;19;20115;-66
2022/11/08 01:29:34;;;;;;;15.40;2.05;;;13.80;81.70;;;;;;9177125;19;20047;-65
2022/11/08 01:32:40;;;;;;;8.90;2.03;;;13.70;81.70;;;;;;9180286;19;20014;-65
2022/11/08 01:35:46;;;;;;;11.18;1.88;;;13.70;81.70;;;;;;9180222;19;20489;-66
2022/11/08 01:38:51;;;;;;;8.73;1.90;;;13.70;81.70;;;;;;9178250;19;20464;-66
2022/11/08 01:41:55;;;;;;;11.82;2.53;;;13.70;81.70;;;;;;9179148;19;20011;-65
2022/11/08 01:45:00;;;;;;;10.23;1.85;;;13.70;81.80;;;;;;9179387;19;20347;-66
2022/11/08 01:48:05;;;;;;;9.60;2.17;;;13.70;81.80;;;;;;9179652;19;20037;-65
2022/11/08 01:51:13;;;;;;;9.68;2.17;;;13.70;81.80;;;;;;9175093;19;20018;-65
2022/11/08 01:54:21;;;;;;;6.43;1.65;;;13.60;81.70;;;;;;9180545;19;20010;-65
2022/11/08 01:57:28;;;;;;;11.25;2.60;;;13.60;81.80;;;;;;9177502;19;20018;-66
2022/11/08 02:00:32;;;;;;;7.70;2.13;;;13.60;81.80;;;;;;9179374;19;20130;-66
2022/11/08 02:03:38;;;;;;;5.15;1.80;;;13.60;81.80;;;;;;9178288;19;20041;-65
2022/11/08 02:06:43;;;;;;;11.50;2.08;;;13.60;81.90;;;;;;9177393;19;20043;-65
2022/11/08 02:09:48;;;;;;;13.48;2.55;;;13.60;81.90;;;;;;9177698;19;20466;-65
2022/11/08 02:12:53;;;;;;;8.13;1.73;;;13.60;81.90;;;;;;9177129;19;20018;-65
2022/11/08 02:15:57;;;;;;;9.98;1.90;;;13.60;81.90;;;;;;9177609;19;20017;-68
2022/11/08 02:19:03;;;;;;;;;;;13.60;82.00;;;;;;9177953;19;20033;-67
2022/11/08 02:22:13;;;;;;;16.92;2.75;;;13.50;81.90;;;;;;9172375;19;20291;-66
2022/11/08 02:25:19;;;;;;;15.13;2.45;;;13.50;81.90;;;;;;9175788;19;20025;-66
2022/11/08 02:28:23;;;;;;;8.93;2.17;;;13.50;81.90;;;;;;9174625;19;20126;-66
2022/11/08 02:31:27;;;;;;;9.10;2.28;;;13.50;81.90;;;;;;9175015;19;20738;-66
2022/11/08 02:34:32;;;;;;;;;;;13.50;81.90;;;;;;9176994;19;20014;-65
2022/11/08 02:37:37;;;;;;;8.43;1.70;;;13.50;81.90;;;;;;9176765;19;19964;-65
2022/11/08 02:40:51;;;;;;;11.18;2.17;;;13.50;81.90;;;;;;9178302;19;20494;-65
2022/11/08 02:43:55;;;;;;;15.40;2.53;;;13.50;81.90;;;;;;9175969;19;20037;-66
2022/11/08 02:46:59;;;;;;;9.60;2.00;;;13.50;81.90;;;;;;9178228;19;20014;-65
2022/11/08 02:50:03;;;;;;;9.93;1.88;;;13.50;81.90;;;;;;9174943;19;20030;-65
2022/11/08 02:56:55;;;;;;;6.40;1.80;;;13.40;82.00;;;;;;9161299;19;20014;-62
2022/11/08 02:59:59;;;;;;;8.35;1.90;;;13.40;81.90;;;;;;9175816;19;20014;-64
2022/11/08 03:03:03;;;;;;;9.27;2.00;;;13.40;81.90;;;;;;9178248;19;20020;-63
2022/11/08 03:06:07;;;;;;;5.18;2.42;;;13.40;82.00;;;;;;9175544;19;20015;-63
2022/11/08 03:09:11;;;;;;;10.05;2.10;;;13.30;82.00;;;;;;9174443;19;20022;-64
2022/11/08 03:12:19;;;;;;;7.43;2.53;;;13.30;81.90;;;;;;9177382;19;20011;-62
2022/11/08 03:15:22;;;;;;;10.02;2.03;;;13.30;82.00;;;;;;9178093;19;20044;-63
2022/11/08 03:18:26;;;;;;;8.20;2.03;;;13.30;82.00;;;;;;9177835;19;20014;-62
2022/11/08 03:21:30;;;;;;;10.48;2.13;;;13.30;82.00;;;;;;9177041;19;20018;-65
2022/11/08 03:24:34;;;;;;;8.18;1.98;;;13.20;81.90;;;;;;9178658;19;20018;-65
2022/11/08 03:27:40;;;;;;;13.82;2.10;;;13.30;82.00;;;;;;9177822;19;20014;-63
2022/11/08 03:30:44;;;;;;;8.25;1.90;;;13.20;82.00;;;;;;9172955;19;20071;-63
2022/11/08 03:33:47;;;;;;;9.80;2.33;;;13.20;82.00;;;;;;9178881;19;20014;-63
2022/11/08 03:36:51;;;;;;;9.60;1.90;;;13.20;82.00;;;;;;9176442;19;20439;-63
2022/11/08 03:39:55;;;;;;;5.45;1.48;;;13.20;82.00;;;;;;9177467;19;20026;-64
2022/11/08 03:43:00;;;;;;;5.93;2.20;;;13.20;82.00;;;;;;9175680;19;20039;-63
2022/11/08 03:46:04;;;;;;;6.80;2.03;;;13.20;82.00;;;;;;9177776;19;20087;-62
2022/11/08 03:49:08;;;;;;;7.10;1.70;;;13.10;82.00;;;;;;9174642;19;20046;-63
2022/11/08 03:52:13;;;;;;;6.80;2.20;;;13.10;82.00;;;;;;9175699;19;20029;-62
2022/11/08 03:55:18;;;;;;;7.47;1.48;;;13.10;82.10;;;;;;9174124;19;20031;-64
2022/11/08 03:58:24;;;;;;;5.40;1.60;;;13.10;82.10;;;;;;9170815;19;20022;-66
2022/11/08 04:01:27;;;;;;;9.07;1.80;;;13.10;82.10;;;;;;9175001;19;20359;-63
2022/11/08 04:04:31;;;;;;;;;;;13.00;82.10;;;;;;9175431;19;20026;-62
2022/11/08 04:07:35;;;;;;;6.50;1.73;;;13.00;82.00;;;;;;9176865;19;19919;-65
2022/11/08 04:10:39;;;;;;;6.72;1.40;;;13.00;82.00;;;;;;9174302;19;20014;-63
2022/11/08 04:17:02;;;;;;;6.60;1.60;;;13.00;82.10;;;;;;9175680;19;20014;-63
2022/11/08 04:23:23;;;;;;;15.20;2.10;;;12.90;82.10;;;;;;9183236;19;19937;-62
2022/11/08 04:26:27;;;;;;;6.07;1.90;;;12.90;82.00;;;;;;9184354;19;20042;-63
2022/11/08 04:29:32;;;;;;;9.07;2.10;;;12.90;82.00;;;;;;9182659;19;20027;-65
2022/11/08 04:32:36;;;;;;;13.48;2.83;;;12.90;82.10;;;;;;9181882;19;20021;-64
2022/11/08 04:35:40;;;;;;;6.63;2.60;;;12.90;82.10;;;;;;9184752;19;20006;-65
2022/11/08 04:38:44;;;;;;;11.25;1.92;;;12.90;82.10;;;;;;9183713;19;20025;-63
2022/11/08 04:41:48;;;;;;;11.48;2.05;;;12.90;82.20;;;;;;9183777;19;20015;-65
2022/11/08 04:44:53;;;;;;;;;;;12.90;82.20;;;;;;9183369;19;20030;-62
2022/11/08 04:47:57;;;;;;;11.73;1.95;;;12.80;82.10;;;;;;9182034;19;19926;-64
2022/11/08 04:51:03;;;;;;;8.68;1.85;;;12.80;82.00;;;;;;9179922;19;20014;-65
2022/11/08 04:54:07;;;;;;;12.65;3.13;;;12.80;82.00;;;;;;9182094;19;20038;-64
2022/11/08 04:57:11;;;;;;;9.80;1.88;;;12.80;82.10;;;;;;9178258;19;20022;-62
2022/11/08 05:00:18;;;;;;;8.98;2.78;;;12.80;82.10;;;;;;9181479;19;20022;-63
2022/11/08 05:03:22;;;;;;;9.55;2.53;;;12.70;82.10;;;;;;9181472;19;20038;-63
2022/11/08 05:06:27;;;;;;;13.70;2.28;;;12.70;82.10;;;;;;9183018;19;20022;-63
2022/11/08 05:09:31;;;;;;;12.00;3.05;;;12.70;82.10;;;;;;9181259;19;20015;-63
2022/11/08 05:12:37;;;;;;;13.00;3.15;;;12.70;82.10;;;;;;9182615;19;20022;-62
2022/11/08 05:15:43;;;;;;;12.85;2.80;;;12.60;82.20;;;;;;9181960;19;20025;-64
2022/11/08 05:18:47;;;;;;;10.40;2.90;;;12.60;82.10;;;;;;9179976;19;20035;-63
2022/11/08 05:25:09;;;;;;;10.13;2.40;;;12.60;82.20;;;;;;9181769;19;20026;-63
2022/11/08 05:28:13;;;;;;;7.82;2.10;;;12.60;82.10;;;;;;9182594;19;20026;-62
2022/11/08 05:31:18;;;;;;;;;;;12.60;82.20;;;;;;9179632;19;20043;-63
2022/11/08 05:34:22;;;;;;;8.35;3.08;;;12.60;82.20;;;;;;9179588;19;19930;-64
2022/11/08 05:37:25;;;;;;;8.57;2.78;;;12.60;82.10;;;;;;9180383;19;20505;-64
2022/11/08 05:40:29;;;;;;;12.15;2.42;;;12.60;82.10;;;;;;9181745;19;20021;-62
2022/11/08 05:43:37;;;;;;;5.38;1.90;;;12.50;82.10;;;;;;9179393;19;20018;-64
2022/11/08 05:46:42;;;;;;;;;;;12.60;82.10;;;;;;9183619;19;20332;-62
2022/11/08 05:49:46;;;;;;;6.90;2.05;;;12.60;82.10;;;;;;9180036;19;19923;-65
2022/11/08 05:52:51;;;;;;;15.27;2.15;;;12.50;82.00;;;;;;9181455;19;20014;-62
2022/11/08 05:55:59;;;;;;;7.40;2.03;;;12.50;82.10;;;;;;9170917;19;20011;-62
2022/11/08 05:59:03;;;;;;;10.85;2.35;;;12.50;82.10;;;;;;9180213;19;20094;-63
2022/11/08 06:02:08;;;;;;;6.45;2.25;;;12.50;82.10;;;;;;9180555;19;20010;-64
2022/11/08 06:05:13;;;;;;;7.57;2.13;;;12.50;82.10;;;;;;9181413;19;20018;-62
2022/11/08 06:08:16;;;;;;;6.07;1.48;;;12.50;82.10;;;;;;9180800;19;20024;-62
2022/11/08 06:11:22;;;;;;;8.38;2.88;;;12.50;82.00;;;;;;9175582;19;20030;-63
2022/11/08 06:14:26;;;;;;;12.15;2.72;;;12.40;82.00;;;;;;9179398;19;20042;-63
2022/11/08 06:17:31;;;;;;;8.95;2.58;;;12.40;82.00;;;;;;9179466;19;20026;-63
2022/11/08 06:20:35;;;;;;;9.35;1.98;;;12.40;82.00;;;;;;9180306;19;20069;-63
2022/11/08 06:23:39;;;;;;;;;;;12.40;82.00;;;;;;9178255;19;20025;-62
2022/11/08 06:26:43;;;;;;;4.05;1.83;;;12.40;82.00;;;;;;9178382;19;19929;-63
2022/11/08 06:29:46;;;;;;;8.45;2.08;;;12.40;81.90;;;;;;9176326;19;20011;-63
2022/11/08 06:32:52;;;;;;;10.07;1.80;;;12.30;81.90;;;;;;9177555;19;20041;-62
2022/11/08 06:35:56;;;;;;;3.33;1.70;;;12.30;82.00;;;;;;9175997;19;20018;-63
2022/11/08 06:38:59;;;;;;;8.18;1.60;;;12.30;81.90;;;;;;9177819;19;20022;-62
2022/11/08 06:42:03;;;;;;;6.50;2.08;;;12.30;81.90;;;;;;9179921;19;20359;-64
2022/11/08 06:45:08;;;;;;;;;;;12.30;81.90;;;;;;9171481;19;20478;-64
2022/11/08 06:48:13;;;;;;;6.55;1.50;;;12.20;81.90;;;;;;9172272;19;20343;-65
2022/11/08 06:51:17;;;;;;;10.52;2.88;;;12.20;81.90;;;;;;9170052;19;20043;-63
2022/11/08 06:54:21;;;;;;;;;;;12.20;81.90;;;;;;9167542;19;20038;-64
2022/11/08 06:57:30;;;;;;;5.53;1.85;;;12.20;81.90;;;;;;9165192;19;19918;-65
2022/11/08 07:00:35;;;;;;;9.25;2.97;;;12.20;81.90;;;;;;9169648;19;20114;-64
2022/11/08 07:03:40;;;;;;;;;;;12.20;81.90;;;;;;9172765;19;20394;-64
2022/11/08 07:06:44;;;;;;;3.50;1.67;;;12.20;81.90;;;;;;9172781;19;19918;-64
2022/11/08 07:09:48;;;;;;;6.32;2.17;;;12.20;81.90;;;;;;9168019;19;20018;-66
2022/11/08 07:12:58;;;;;;;;;;;12.20;81.90;;;;;;9169532;19;20014;-63
2022/11/08 07:16:02;;;;;;;4.60;1.80;;;12.30;82.00;;;;;;9170723;19;20561;-62
2022/11/08 07:19:08;;;;;;;9.50;1.80;;;12.20;82.50;;;;;;9171870;19;20014;-63
2022/11/08 07:22:12;;;;;;;2.80;1.38;;;12.30;82.00;;;;;;9168706;19;20010;-64
2022/11/08 07:25:16;;;;;;;2.83;1.35;;;12.30;82.00;;;;;;9166654;19;20025;-62
2022/11/08 07:28:20;;;;;;;16.73;1.85;;;12.30;81.90;;;;;;9168899;19;20002;-62
2022/11/08 07:31:24;;;;;;;3.72;1.50;;;12.30;81.90;;;;;;9167380;19;20846;-62
2022/11/08 07:34:30;;;;;;;5.80;1.73;;;12.30;81.90;;;;;;9176399;19;20018;-68
2022/11/08 07:37:34;;;;;;;11.07;2.00;;;12.40;81.90;;;;;;9171632;19;20014;-67
2022/11/08 07:40:39;;;;;;;6.03;1.83;;;12.40;81.90;;;;;;9167078;19;20015;-68
2022/11/08 07:44:03;;;;;;;10.82;1.70;;;12.40;81.90;;;;;;9170069;19;20018;-67
2022/11/08 07:47:07;;;;;;;8.88;1.88;;;12.50;81.90;;;;;;9175148;19;20015;-68
2022/11/08 07:50:13;;;;;;;;;;;12.40;81.80;;;;;;9173088;19;20033;-68
2022/11/08 07:53:21;;;;;;;10.13;3.45;;;12.50;81.80;;;;;;9175748;19;19919;-68
2022/11/08 07:56:24;;;;;;;;;;;12.50;81.70;;;;;;9174167;19;20014;-67
2022/11/08 07:59:28;;;;;;;9.82;1.85;;;12.50;81.70;;;;;;9182844;19;19997;-67
2022/11/08 08:02:32;;;;;;;5.72;2.08;;;12.60;81.70;;;;;;9182400;19;20007;-67
2022/11/08 08:05:40;;;;;;;7.70;1.45;;;12.60;81.70;;;;;;9182758;19;20022;-69
2022/11/08 08:08:44;;;;;;;4.35;1.70;;;12.60;81.60;;;;;;9177188;19;20018;-70
2022/11/08 08:11:48;;;;;;;7.78;1.88;;;12.60;81.60;;;;;;9172406;19;20014;-67
2022/11/08 08:14:52;;;;;;;6.50;1.90;;;12.70;81.60;;;;;;9180626;19;20018;-67
2022/11/08 08:17:56;;;;;;;9.30;1.77;;;12.70;81.50;;;;;;9177444;19;20053;-66
2022/11/08 08:21:02;;;;;;;7.07;1.80;;;12.70;81.50;;;;;;9177284;19;20019;-68
2022/11/08 08:24:06;;;;;;;3.92;1.50;;;12.80;81.50;;;;;;9181042;19;20018;-67
2022/11/08 08:27:11;;;;;;;4.47;2.17;;;12.80;81.40;;;;;;9185380;19;20017;-69
2022/11/08 08:30:16;;;;;;;3.50;1.13;;;12.80;81.40;;;;;;9182700;19;20011;-66
2022/11/08 08:33:19;;;;;;;4.55;1.45;;;12.90;81.40;;;;;;9180072;19;20072;-66
2022/11/08 08:36:39;;;;;;;4.78;2.15;;;12.90;81.30;;;;;;9176739;19;20031;-66
2022/11/08 08:39:43;;;;;;;8.32;2.03;;;13.00;81.30;;;;;;9176643;19;20017;-70
2022/11/08 08:42:47;;;;;;;4.82;1.33;;;13.10;81.30;;;;;;9177400;19;20404;-67
2022/11/08 08:45:53;;;;;;;6.65;2.10;;;13.10;81.30;;;;;;9177026;19;20048;-65
2022/11/08 08:48:57;;;;;;;4.50;1.52;;;13.20;81.10;;;;;;9179959;19;20348;-67
2022/11/08 08:52:02;;;;;;;;;;;13.20;81.10;;;;;;9171045;19;20389;-67
2022/11/08 08:55:07;;;;;;;2.53;1.30;;;13.30;81.10;;;;;;9172863;19;19966;-67
2022/11/08 08:58:12;;;;;;;3.05;1.70;;;13.30;81.00;;;;;;9175489;19;20471;-68
2022/11/08 09:01:16;;;;;;;3.50;1.42;;;13.30;80.90;;;;;;9176540;19;20026;-71
2022/11/08 09:04:40;;;;;;;;;;;13.40;80.90;;;;;;9171294;19;20021;-67
2022/11/08 09:07:46;;;;;;;2.38;1.40;;;13.40;80.80;;;;;;9173636;19;19915;-69
2022/11/08 09:10:55;;;;;;;5.35;1.25;;;13.50;80.80;;;;;;9174835;19;20054;-65
2022/11/08 09:13:59;;;;;;;4.90;1.35;;;13.50;80.70;;;;;;9171955;19;20030;-68
2022/11/08 09:17:02;;;;;;;3.17;1.38;;;13.60;80.60;;;;;;9176347;19;20018;-66
2022/11/08 09:20:07;;;;;;;2.10;1.35;;;13.60;80.60;;;;;;9173498;19;20029;-68
2022/11/08 09:23:13;;;;;;;3.00;1.23;;;13.70;80.60;;;;;;9173665;19;20014;-69
2022/11/08 09:26:17;;;;;;;5.05;1.27;;;13.70;80.40;;;;;;9177522;19;20028;-67
2022/11/08 09:29:22;;;;;;;6.85;2.22;;;13.80;80.40;;;;;;9175708;19;20018;-66
2022/11/08 09:32:26;;;;;;;6.68;1.80;;;13.90;80.30;;;;;;9178617;19;20022;-66
2022/11/08 09:35:52;;;;;;;3.20;1.50;;;13.90;80.20;;;;;;9170239;19;20090;-66
2022/11/08 09:38:58;;;;;;;5.50;2.15;;;14.00;80.10;;;;;;9172132;19;20383;-66
2022/11/08 09:42:27;;;;;;;5.35;1.65;;;14.10;80.00;;;;;;9171986;19;20114;-69
2022/11/08 09:45:35;;;;;;;6.38;1.83;;;14.10;79.80;;;;;;9173126;19;20018;-71
2022/11/08 09:48:43;;;;;;;5.18;1.48;;;14.30;79.80;;;;;;9180008;19;20026;-69
2022/11/08 09:51:47;;;;;;;4.60;1.20;;;14.30;79.70;;;;;;9171417;19;20022;-67
2022/11/08 09:54:56;;;;;;;4.55;1.60;;;14.40;79.60;;;;;;9176708;19;20046;-65
2022/11/08 09:58:16;;;;;;;2.53;1.20;;;14.50;79.40;;;;;;9172161;19;20020;-67
2022/11/08 10:01:20;;;;;;;3.53;1.33;;;14.60;79.30;;;;;;9173576;19;20015;-64
2022/11/08 10:04:34;;;;;;;5.22;1.75;;;14.60;79.20;;;;;;9170892;19;20029;-63
2022/11/08 10:07:45;;;;;;;4.43;1.38;;;14.60;79.00;;;;;;9176572;19;20030;-64
2022/11/08 10:11:14;;;;;;;3.40;1.48;;;14.70;78.90;;;;;;9172556;19;20018;-64
2022/11/08 10:14:34;;;;;;;5.03;1.42;;;14.80;78.60;;;;;;9171936;19;20046;-64
2022/11/08 10:18:22;;;;;;;4.85;1.73;;;14.80;78.60;;;;;;9175527;19;20083;-65
2022/11/08 10:21:51;;;;;;;7.25;3.00;;;14.90;78.40;;;;;;9170108;19;20399;-64
2022/11/08 10:25:00;;;;;;;6.55;2.17;;;14.90;78.40;;;;;;9169241;19;20018;-66
2022/11/08 10:28:08;;;;;;;5.35;1.85;;;15.00;78.50;;;;;;9173460;19;20019;-64
2022/11/08 10:31:14;;;;;;;3.72;1.60;;;15.00;78.30;;;;;;9169314;19;20024;-66
2022/11/08 10:34:22;;;;;;;5.80;1.55;;;15.10;78.30;;;;;;9175337;19;20512;-63
2022/11/08 10:37:28;;;;;;;4.80;1.88;;;15.20;78.20;;;;;;9170172;19;20018;-64
2022/11/08 10:40:42;;;;;;;9.05;2.10;;;15.20;78.10;;;;;;9163264;19;20497;-64
2022/11/08 10:43:53;;;;;;;8.30;1.55;;;15.20;77.80;;;;;;9170091;19;20022;-64
2022/11/08 10:47:01;;;;;;;6.32;1.20;;;15.30;77.80;;;;;;9163398;19;20015;-66
2022/11/08 10:50:13;;;;;;;3.25;1.50;;;15.30;77.70;;;;;;9165810;19;20029;-63
2022/11/08 10:53:21;;;;;;;4.45;1.40;;;15.40;77.70;;;;;;9168257;19;20035;-65
2022/11/08 10:56:25;;;;;;;3.22;1.30;;;15.40;77.60;;;;;;9169963;19;20026;-68
2022/11/08 10:59:33;;;;;;;3.40;1.58;;;15.40;77.50;;;;;;9158324;19;20483;-64
2022/11/08 11:02:37;;;;;;;6.63;1.95;;;15.40;77.40;;;;;;9172599;19;20013;-66
2022/11/08 11:05:44;;;;;;;5.20;2.15;;;15.50;77.40;;;;;;9173299;19;20026;-65
2022/11/08 11:08:51;;;;;;;3.28;1.65;;;15.50;77.30;;;;;;9169989;19;20025;-64
2022/11/08 11:11:58;;;;;;;5.60;1.80;;;15.50;77.20;;;;;;9169306;19;20025;-63
2022/11/08 11:15:05;;;;;;;6.63;1.67;;;15.50;77.10;;;;;;9160037;19;20026;-63
2022/11/08 11:18:22;;;;;;;5.75;1.35;;;15.60;77.10;;;;;;9153930;19;20014;-66
2022/11/08 11:21:26;;;;;;;7.38;1.80;;;15.60;76.90;;;;;;9168868;19;20014;-63
2022/11/08 11:24:30;;;;;;;;;;;15.60;77.00;;;;;;9174207;19;20014;-63
2022/11/08 11:27:37;;;;;;;4.07;1.45;;;15.70;77.10;;;;;;9160574;19;19934;-65
2022/11/08 11:30:46;;;;;;;4.30;1.50;;;15.70;77.10;;;;;;9157930;19;20015;-66
2022/11/08 11:33:49;;;;;;;5.25;1.52;;;15.70;76.90;;;;;;9175975;19;20018;-63
2022/11/08 11:36:57;;;;;;;5.43;2.17;;;15.70;76.80;;;;;;9170058;19;20418;-66
2022/11/08 11:40:08;;;;;;;5.95;1.35;;;15.80;76.70;;;;;;9170199;19;20131;-66
2022/11/08 11:43:17;;;;;;;5.97;1.83;;;15.80;76.60;;;;;;9176344;19;20025;-64
2022/11/08 11:46:30;;;;;;;5.68;2.13;;;15.80;76.50;;;;;;9171331;19;20015;-62
2022/11/08 11:49:36;;;;;;;8.77;1.60;;;15.80;76.40;;;;;;9172119;19;20018;-63
2022/11/08 11:52:41;;;;;;;15.35;1.90;;;15.80;76.40;;;;;;9166201;19;20502;-64
2022/11/08 11:56:09;;;;;;;6.68;1.77;;;15.90;76.40;;;;;;9167490;19;20022;-63
2022/11/08 11:59:27;;;;;;;4.63;1.45;;;15.90;76.10;;;;;;9174264;19;20011;-66
2022/11/08 12:03:01;;;;;;;3.20;1.48;;;15.90;76.10;;;;;;9166688;19;20018;-65
2022/11/08 12:06:20;;;;;;;5.15;1.42;;;15.90;75.90;;;;;;9176353;19;20022;-64
2022/11/08 12:09:42;;;;;;;3.58;1.35;;;15.90;76.10;;;;;;9175078;19;20015;-63
2022/11/08 12:12:57;;;;;;;6.75;1.70;;;16.00;75.90;;;;;;9172706;19;20055;-65
2022/11/08 12:16:07;;;;;;;3.00;1.55;;;16.00;76.00;;;;;;9176131;19;20596;-65
2022/11/08 12:19:34;;;;;;;5.03;1.90;;;16.00;75.90;;;;;;9175337;19;20023;-63
2022/11/08 12:22:51;;;;;;;5.95;1.65;;;16.00;75.70;;;;;;9177102;19;20503;-65
2022/11/08 12:26:02;;;;;;;7.13;1.63;;;16.00;75.70;;;;;;9175231;19;20014;-65
2022/11/08 12:29:21;;;;;;;7.78;1.58;;;16.00;75.70;;;;;;9174617;19;20527;-63
2022/11/08 12:32:41;;;;;;;7.53;1.73;;;16.00;75.60;;;;;;9167861;19;20019;-65
2022/11/08 12:35:58;;;;;;;4.70;1.73;;;16.10;75.60;;;;;;9177235;19;20018;-63
2022/11/08 12:39:10;;;;;;;7.85;1.40;;;16.10;75.50;;;;;;9173031;19;20082;-65
2022/11/08 12:42:26;;;;;;;4.38;1.23;;;16.10;75.50;;;;;;9174739;19;20447;-67
2022/11/08 12:45:41;;;;;;;5.88;1.55;;;16.10;75.40;;;;;;9174379;19;20056;-62
2022/11/08 12:49:00;;;;;;;5.88;1.60;;;16.10;75.30;;;;;;9174290;19;20018;-64
2022/11/08 12:52:22;;;;;;;3.25;1.13;;;16.20;75.30;;;;;;9172868;19;20019;-62
2022/11/08 12:55:30;;;;;;;5.13;1.60;;;16.20;75.10;;;;;;9173878;19;20018;-63
2022/11/08 12:58:39;;;;;;;6.50;1.20;;;16.20;75.20;;;;;;9175355;19;20034;-63
2022/11/08 13:01:43;;;;;;;6.22;1.48;;;16.20;75.20;;;;;;9175323;19;20478;-65
2022/11/08 13:04:55;;;;;;;3.65;2.00;;;16.20;75.20;;;;;;9173674;19;20022;-66
2022/11/08 13:08:07;;;;;;;4.18;1.40;;;16.20;75.10;;;;;;9173301;19;20029;-64
2022/11/08 13:11:16;;;;;;;6.30;2.08;;;16.20;74.90;;;;;;9172628;19;20010;-65
2022/11/08 13:14:21;;;;;;;4.32;1.83;;;16.30;75.00;;;;;;9174092;19;20028;-66
2022/11/08 13:17:27;;;;;;;4.97;1.52;;;16.30;74.90;;;;;;9174563;19;20175;-65
2022/11/08 13:20:42;;;;;;;5.10;2.03;;;16.30;74.80;;;;;;9173440;19;20033;-66
2022/11/08 13:23:47;;;;;;;2.80;1.63;;;16.30;74.70;;;;;;9173982;19;20029;-67
2022/11/08 13:26:51;;;;;;;7.47;1.70;;;16.30;74.70;;;;;;9170827;19;20021;-65
2022/11/08 13:30:26;;;;;;;4.97;1.90;;;16.30;74.70;;;;;;9172794;19;20029;-67
2022/11/08 13:33:52;;;;;;;3.55;1.92;;;16.30;74.60;;;;;;9172291;19;20024;-67
2022/11/08 13:37:10;;;;;;;5.28;2.03;;;16.30;74.60;;;;;;9170907;19;20467;-66
2022/11/08 13:40:50;;;;;;;6.40;1.70;;;16.30;74.50;;;;;;9172504;19;20019;-64
2022/11/08 13:44:00;;;;;;;3.33;1.40;;;16.30;74.30;;;;;;9170961;19;20687;-64
2022/11/08 13:47:03;;;;;;;4.35;1.70;;;16.30;74.60;;;;;;9171597;19;20018;-65
2022/11/08 13:50:37;;;;;;;5.10;1.60;;;16.30;74.50;;;;;;9173266;19;20014;-64
2022/11/08 13:53:48;;;;;;;5.70;1.85;;;16.30;74.20;;;;;;9170008;19;20026;-64
2022/11/08 13:56:56;;;;;;;4.43;1.70;;;16.30;74.40;;;;;;9172053;19;20020;-65
2022/11/08 14:00:00;;;;;;;3.60;1.40;;;16.30;74.40;;;;;;9174342;19;20369;-64
2022/11/08 14:03:23;;;;;;;10.48;1.70;;;16.30;74.30;;;;;;9171880;19;20026;-66
2022/11/08 14:06:33;;;;;;;10.48;1.58;;;16.30;74.30;;;;;;9170943;19;20022;-66
2022/11/08 14:09:47;;;;;;;8.90;2.05;;;16.30;74.30;;;;;;9177574;19;20035;-64
2022/11/08 14:12:59;;;;;;;6.90;1.57;;;16.30;74.20;;;;;;9169384;19;20011;-66
2022/11/08 14:16:07;;;;;;;4.57;1.48;;;16.20;74.20;;;;;;9176181;19;20170;-63
2022/11/08 14:19:23;;;;;;;5.32;1.70;;;16.20;74.20;;;;;;9179437;19;20029;-64
2022/11/08 14:22:29;;;;;;;3.20;1.60;;;16.30;74.00;;;;;;9173548;19;20022;-65
2022/11/08 14:25:36;;;;;;;2.47;1.27;;;16.20;74.10;;;;;;9176434;19;20019;-66
2022/11/08 14:28:43;;;;;;;5.97;1.50;;;16.20;74.00;;;;;;9176693;19;20024;-65
2022/11/08 14:31:48;;;;;;;8.23;1.42;;;16.20;74.00;;;;;;9168941;19;20011;-64
2022/11/08 14:34:52;;;;;;;3.60;1.38;;;16.20;74.00;;;;;;9177002;19;20456;-65
2022/11/08 14:37:55;;;;;;;;;;;16.20;74.00;;;;;;9177205;19;20022;-64
2022/11/08 14:41:01;;;;;;;6.37;1.63;;;16.20;74.10;;;;;;9175081;19;19960;-67
2022/11/08 14:44:17;;;;;;;7.43;2.22;;;16.20;74.20;;;;;;9173456;19;20548;-66
2022/11/08 14:47:29;;;;;;;4.93;1.63;;;16.20;74.00;;;;;;9176286;19;20468;-68
2022/11/08 14:50:36;;;;;;;6.97;1.60;;;16.20;74.00;;;;;;9168341;19;20531;-66
2022/11/08 14:53:47;;;;;;;4.45;1.45;;;16.10;74.00;;;;;;9169102;19;20501;-65
2022/11/08 14:56:54;;;;;;;6.05;1.80;;;16.10;73.80;;;;;;9170688;19;20021;-65
2022/11/08 15:00:03;;;;;;;3.92;1.70;;;16.20;74.00;;;;;;9172610;19;20122;-66
2022/11/08 15:03:08;;;;;;;5.47;1.30;;;16.10;73.90;;;;;;9170356;19;20033;-65
2022/11/08 15:06:12;;;;;;;4.22;1.83;;;16.10;73.90;;;;;;9169285;19;20018;-64
2022/11/08 15:09:21;;;;;;;5.07;1.88;;;16.10;73.90;;;;;;9169498;19;20023;-66
2022/11/08 15:12:26;;;;;;;4.32;1.50;;;16.10;73.80;;;;;;9164712;19;20014;-64
2022/11/08 15:15:34;;;;;;;6.38;2.53;;;16.10;73.90;;;;;;9166239;19;20011;-66
2022/11/08 15:18:40;;;;;;;6.20;2.17;;;16.10;73.80;;;;;;9166336;19;20013;-67
2022/11/08 15:21:49;;;;;;;5.55;1.80;;;16.00;73.80;;;;;;9163241;19;20014;-67
2022/11/08 15:25:02;;;;;;;3.45;1.92;;;16.00;73.80;;;;;;9165102;19;20027;-66
2022/11/08 15:28:16;;;;;;;5.43;1.77;;;16.00;73.70;;;;;;9164136;19;20043;-65
2022/11/08 15:31:22;;;;;;;11.60;2.10;;;15.90;73.70;;;;;;9160579;19;20563;-64
2022/11/08 15:34:31;;;;;;;4.07;1.80;;;15.90;73.80;;;;;;9166146;19;20459;-68
2022/11/08 15:37:37;;;;;;;5.32;2.53;;;15.90;73.90;;;;;;9163093;19;20026;-65
2022/11/08 15:40:51;;;;;;;4.82;1.63;;;15.90;73.90;;;;;;9168738;19;20024;-65
2022/11/08 15:44:13;;;;;;;3.58;1.70;;;15.90;73.80;;;;;;9167935;19;20015;-65
2022/11/08 15:47:39;;;;;;;8.10;1.45;;;15.80;73.80;;;;;;9168815;19;20037;-65
2022/11/08 15:50:43;;;;;;;5.78;1.88;;;15.80;73.80;;;;;;9164644;19;20026;-66
2022/11/08 15:53:46;;;;;;;;;;;15.80;73.90;;;;;;9168628;19;20035;-64
2022/11/08 15:56:52;;;;;;;4.40;1.98;;;15.80;74.00;;;;;;9165130;19;19939;-65
2022/11/08 15:59:56;;;;;;;7.47;2.17;;;15.70;74.00;;;;;;9161815;19;20359;-67
2022/11/08 16:03:02;;;;;;;8.20;2.00;;;15.70;74.00;;;;;;9160131;19;20045;-65
2022/11/08 16:06:06;;;;;;;5.85;2.10;;;15.70;74.00;;;;;;9164820;19;20018;-68
2022/11/08 16:09:10;;;;;;;11.98;2.53;;;15.60;74.00;;;;;;9165004;19;20011;-66
2022/11/08 16:12:15;;;;;;;;;;;15.60;74.00;;;;;;9155863;19;20022;-66
2022/11/08 16:15:22;;;;;;;;;;;15.60;74.10;;;;;;9160920;19;19914;-65
2022/11/08 16:18:31;;;;;;;6.28;1.80;;;15.60;74.20;;;;;;9163756;19;19940;-66
2022/11/08 16:21:34;;;;;;;46.42;26.35;;;15.60;74.80;;;;;;9170151;19;20157;-66
2022/11/08 16:24:38;;;;;;;27.60;17.65;;;15.50;74.20;;;;;;9162549;19;20348;-65
2022/11/08 16:27:42;;;;;;;6.35;2.65;;;15.50;74.20;;;;;;9164316;19;20056;-65
2022/11/08 16:30:46;;;;;;;6.35;1.70;;;15.50;74.20;;;;;;9166933;19;20577;-67
2022/11/08 16:33:54;;;;;;;8.75;1.48;;;15.40;74.20;;;;;;9177331;19;20022;-66
2022/11/08 16:36:58;;;;;;;8.43;1.65;;;15.40;74.20;;;;;;9173884;19;20022;-63
2022/11/08 16:40:02;;;;;;;5.72;1.60;;;15.40;74.30;;;;;;9177626;19;20015;-66
2022/11/08 16:43:10;;;;;;;10.68;2.08;;;15.40;74.30;;;;;;9167086;19;20026;-69
2022/11/08 16:46:15;;;;;;;5.35;1.60;;;15.40;74.30;;;;;;9164735;19;20022;-68